首页
METAR-TAF:

METAR-TAF

机场 :

Campbeltown, 苏格兰

纬度: 55-26-14N, 经度: 005-41-11W, 海拔: 13米

当前天气观测

该预报发布于14小时和6分钟前的16:20 UTC
风速9节,风向西
温度 11°C
湿度 76%
气压 1006 hPa
能见度10公里或以上
少量云层高于2500英尺

METAR: EGEC 121620Z 26009KT 9999 FEW025 11/07 Q1006

时间: 07:26 (06:26 UTC)

预报

该预报发布于16小时和26分钟前的14:00 UTC
预报有效从12日的 15点(UTC)到 12日的 17点(UTC)
风速5节,风向西转西北
能见度10公里或以上
少量云层高于3000英尺
几率 30% :
短暂存在
从 12日的 15点(UTC)到 12日的 17点(UTC)
能見度: 6000
多云层高于1000英尺
阵雨

TAF: EGEC 121400Z 1215/1217 30005KT 9999 FEW030 PROB30 TEMPO 1215/1217 6000 SHRA BKN010

超过4000个机场的气象观测和天气预报(METAR&TAF报告)。

可查询的气象台以黄色和红色小点在地图上表示。

将鼠标移到小点上方,可查看气象台名称。

然后点击查看天气观测和预报。

如需切换地图:点击带黑十字的绿色按钮放大地图;点击带横线的绿色按钮缩小地图;或者点击绿色箭头查看邻近地区的地图。


METAR-TAF: